Time;durP1;ratioP1;P1;durP2;ratioP2;P2;SDS_P1;SDS_P2;PMS_P1;PMS_P2;Temp;Humidity;BMP_temperature;BMP_pressure;BME280_temperature;BME280_humidity;BME280_pressure;Samples;Min_cycle;Max_cycle;Signal;HPM_P1;HPM_P2
2022/01/06 00:00:14;;;;;;;4.70;2.20;;;5.10;99.90;;;;;;4990175;28;20228;-70
2022/01/06 00:02:41;;;;;;;3.57;2.27;;;5.20;99.90;;;;;;4983131;28;20287;-72
2022/01/06 00:05:09;;;;;;;3.10;2.47;;;5.20;99.90;;;;;;4987453;28;20211;-71
2022/01/06 00:07:35;;;;;;;7.57;2.57;;;5.00;99.90;;;;;;4990813;28;20198;-71
2022/01/06 00:10:05;;;;;;;5.67;2.37;;;5.00;99.90;;;;;;4992867;28;20199;-71
2022/01/06 00:12:41;;;;;;;6.90;2.83;;;5.00;99.90;;;;;;4987644;28;20215;-71
2022/01/06 00:15:25;;;;;;;5.60;2.90;;;4.90;99.90;;;;;;4992330;28;20653;-71
2022/01/06 00:18:15;;;;;;;8.17;2.80;;;4.90;99.90;;;;;;4990699;28;20264;-73
2022/01/06 00:23:33;;;;;;;4.93;2.50;;;5.00;99.90;;;;;;4987197;28;20190;-72
2022/01/06 00:26:01;;;;;;;6.70;2.43;;;5.00;99.90;;;;;;4987152;28;20301;-71
2022/01/06 00:28:28;;;;;;;4.37;2.30;;;4.90;99.90;;;;;;4987348;28;20631;-71
2022/01/06 00:30:55;;;;;;;5.67;2.53;;;5.00;99.90;;;;;;4982494;28;20237;-70
2022/01/06 00:33:22;;;;;;;5.33;2.50;;;4.90;99.90;;;;;;4989437;28;20652;-72
2022/01/06 00:35:49;;;;;;;5.23;2.57;;;4.90;99.90;;;;;;4983756;28;20703;-73
2022/01/06 00:38:16;;;;;;;4.73;2.50;;;4.90;99.90;;;;;;4987608;28;20193;-71
2022/01/06 00:40:43;;;;;;;4.43;2.20;;;4.90;99.90;;;;;;4990274;28;20389;-74
2022/01/06 00:43:11;;;;;;;4.47;2.43;;;5.00;99.90;;;;;;4991265;28;20204;-72
2022/01/06 00:45:38;;;;;;;3.93;1.97;;;5.00;99.90;;;;;;4987064;28;20215;-74
2022/01/06 00:48:07;;;;;;;6.90;2.03;;;5.00;99.90;;;;;;4984294;28;20287;-71
2022/01/06 00:50:34;;;;;;;3.53;1.93;;;5.10;99.90;;;;;;4987031;28;20207;-72
2022/01/06 00:53:04;;;;;;;4.90;2.00;;;5.00;99.90;;;;;;4985902;28;20220;-72
2022/01/06 00:55:32;;;;;;;8.37;2.00;;;4.90;99.90;;;;;;4983777;28;20221;-71
2022/01/06 00:58:00;;;;;;;3.80;1.70;;;4.90;99.90;;;;;;4976676;28;20214;-72
2022/01/06 01:00:31;;;;;;;3.07;1.80;;;4.90;99.90;;;;;;4999606;28;20217;-73
2022/01/06 01:02:58;;;;;;;2.87;1.70;;;5.10;99.90;;;;;;4976612;28;20197;-70
2022/01/06 01:05:25;;;;;;;2.83;1.70;;;5.00;99.90;;;;;;4987820;28;20307;-72
2022/01/06 01:07:52;;;;;;;4.07;1.97;;;5.00;99.90;;;;;;4986030;28;20202;-70
2022/01/06 01:10:18;;;;;;;3.50;1.83;;;5.00;99.90;;;;;;4983121;28;20205;-70
2022/01/06 01:12:48;;;;;;;3.13;2.10;;;4.90;99.90;;;;;;4983647;28;20204;-75
2022/01/06 01:15:21;;;;;;;3.67;2.17;;;4.80;99.90;;;;;;4987138;28;20273;-71
2022/01/06 01:17:52;;;;;;;4.57;1.93;;;4.90;99.90;;;;;;4980992;28;20202;-72
2022/01/06 01:20:20;;;;;;;3.23;1.90;;;4.90;99.90;;;;;;4987043;28;20223;-74
2022/01/06 01:22:47;;;;;;;2.90;1.90;;;4.90;99.90;;;;;;4988000;28;20197;-71
2022/01/06 01:25:14;;;;;;;2.70;2.00;;;4.90;99.90;;;;;;4986573;28;20218;-74
2022/01/06 01:27:43;;;;;;;7.20;2.20;;;4.80;99.90;;;;;;4987838;28;20206;-71
2022/01/06 01:30:15;;;;;;;3.90;2.07;;;4.90;99.90;;;;;;4982145;28;20208;-72
2022/01/06 01:32:50;;;;;;;4.60;2.40;;;4.90;99.90;;;;;;4984857;28;20226;-73
2022/01/06 01:35:16;;;;;;;5.03;2.27;;;4.90;99.90;;;;;;4991125;28;20855;-70
2022/01/06 01:37:43;;;;;;;10.97;2.17;;;4.80;99.90;;;;;;4989840;28;20673;-72
2022/01/06 01:40:11;;;;;;;9.37;2.60;;;4.90;99.90;;;;;;4980963;28;20226;-72
2022/01/06 01:42:40;;;;;;;4.77;2.40;;;4.90;99.90;;;;;;4979679;28;20202;-72
2022/01/06 01:45:08;;;;;;;3.80;1.93;;;4.90;99.90;;;;;;4974570;28;20222;-72
2022/01/06 01:47:42;;;;;;;3.10;1.80;;;4.90;99.90;;;;;;4982909;28;20694;-72
2022/01/06 01:50:18;;;;;;;4.50;2.00;;;4.90;99.90;;;;;;4990001;28;20204;-71
2022/01/06 01:52:47;;;;;;;5.53;2.60;;;4.90;99.90;;;;;;4988809;28;20209;-72
2022/01/06 01:55:18;;;;;;;5.80;2.20;;;4.90;99.90;;;;;;4988030;28;20234;-73
2022/01/06 01:57:45;;;;;;;4.93;2.00;;;4.70;99.90;;;;;;4990653;28;20195;-72
2022/01/06 02:00:13;;;;;;;5.63;1.93;;;4.70;99.90;;;;;;4986609;28;20645;-74
2022/01/06 02:02:41;;;;;;;5.87;2.10;;;4.80;99.90;;;;;;4989127;28;20216;-74
2022/01/06 02:05:09;;;;;;;6.60;2.57;;;4.90;99.90;;;;;;4988450;28;20745;-71
2022/01/06 02:07:41;;;;;;;7.83;2.40;;;4.80;99.90;;;;;;4985911;28;20283;-71
2022/01/06 02:10:12;;;;;;;5.63;2.10;;;4.80;99.90;;;;;;4987700;28;20201;-71
2022/01/06 02:12:41;;;;;;;6.80;2.40;;;4.80;99.90;;;;;;4987666;28;20263;-73
2022/01/06 02:15:09;;;;;;;6.53;2.60;;;4.80;99.90;;;;;;4988850;28;20233;-71
2022/01/06 02:17:38;;;;;;;5.27;2.23;;;4.80;99.90;;;;;;4983100;28;20215;-71
2022/01/06 02:20:07;;;;;;;7.63;2.50;;;4.60;99.90;;;;;;4987269;28;20241;-71
2022/01/06 02:22:34;;;;;;;7.07;2.37;;;4.40;99.90;;;;;;4986947;28;20195;-72
2022/01/06 02:25:16;;;;;;;5.70;2.13;;;4.30;99.90;;;;;;5002546;28;20266;-71
2022/01/06 02:27:46;;;;;;;8.27;3.30;;;4.40;99.90;;;;;;4985212;28;20203;-73
2022/01/06 02:30:13;;;;;;;7.40;2.27;;;4.50;99.90;;;;;;4979714;28;20197;-72
2022/01/06 02:32:40;;;;;;;8.97;2.50;;;4.50;99.90;;;;;;4984669;28;20196;-71
2022/01/06 02:35:15;;;;;;;6.27;2.30;;;4.40;99.90;;;;;;4988538;28;20225;-74
2022/01/06 02:37:42;;;;;;;5.73;2.23;;;4.50;99.90;;;;;;4987297;28;20187;-73
2022/01/06 02:40:14;;;;;;;6.90;2.40;;;4.50;99.90;;;;;;4984061;28;20272;-73
2022/01/06 02:42:44;;;;;;;11.33;2.23;;;4.30;99.90;;;;;;4990139;28;20192;-73
2022/01/06 02:45:12;;;;;;;7.17;2.10;;;4.30;99.90;;;;;;4988468;28;20311;-72
2022/01/06 02:47:39;;;;;;;4.20;2.30;;;4.20;99.90;;;;;;4990954;28;20199;-71
2022/01/06 02:50:07;;;;;;;5.07;2.10;;;4.10;99.90;;;;;;4983166;28;20205;-72
2022/01/06 02:52:34;;;;;;;5.50;2.33;;;4.10;99.90;;;;;;4988601;28;20573;-73
2022/01/06 02:55:01;;;;;;;4.80;2.13;;;4.00;99.90;;;;;;4985350;28;20222;-72
2022/01/06 02:57:28;;;;;;;11.10;1.97;;;3.90;99.90;;;;;;4975441;28;20201;-71
2022/01/06 02:59:54;;;;;;;6.63;2.20;;;4.00;99.90;;;;;;4987875;28;20341;-72
2022/01/06 03:02:21;;;;;;;7.30;2.30;;;4.00;99.90;;;;;;4986788;28;20205;-71
2022/01/06 03:04:48;;;;;;;8.23;2.00;;;3.80;99.90;;;;;;4990405;28;20255;-71
2022/01/06 03:07:14;;;;;;;6.37;2.60;;;3.80;99.90;;;;;;4979567;28;20200;-73
2022/01/06 03:09:43;;;;;;;9.13;2.17;;;3.80;99.90;;;;;;4986676;28;20200;-72
2022/01/06 03:14:51;;;;;;;5.13;1.90;;;3.60;99.90;;;;;;4983003;28;20727;-72
2022/01/06 03:17:18;;;;;;;5.10;2.33;;;3.50;99.90;;;;;;4987199;28;20204;-72
2022/01/06 03:19:45;;;;;;;10.50;2.77;;;3.30;99.90;;;;;;4983707;28;20228;-72
2022/01/06 03:22:13;;;;;;;8.00;3.00;;;3.30;99.90;;;;;;4982991;28;20220;-74
2022/01/06 03:24:40;;;;;;;11.30;2.60;;;3.20;99.90;;;;;;4986271;28;20224;-72
2022/01/06 03:27:07;;;;;;;8.37;2.10;;;3.10;99.90;;;;;;4987456;28;20216;-72
2022/01/06 03:29:34;;;;;;;8.37;2.50;;;3.20;99.90;;;;;;4986354;28;20216;-71
2022/01/06 03:32:01;;;;;;;12.03;2.47;;;3.20;99.90;;;;;;4986091;28;20193;-71
2022/01/06 03:34:30;;;;;;;5.90;2.47;;;3.30;99.90;;;;;;4985609;28;20241;-73
2022/01/06 03:36:58;;;;;;;7.57;2.43;;;3.20;99.90;;;;;;4988271;28;20202;-69
2022/01/06 03:39:26;;;;;;;8.90;2.80;;;3.30;99.90;;;;;;5003608;28;20220;-73
2022/01/06 03:41:52;;;;;;;5.67;2.20;;;3.30;99.90;;;;;;4983955;28;20190;-72
2022/01/06 03:44:19;;;;;;;4.50;1.93;;;3.10;99.90;;;;;;4989926;28;20209;-71
2022/01/06 03:46:46;;;;;;;7.67;1.90;;;3.00;99.90;;;;;;4991550;28;20200;-73
2022/01/06 03:49:12;;;;;;;5.33;2.23;;;2.80;99.90;;;;;;4986033;28;20286;-72
2022/01/06 03:51:39;;;;;;;6.60;2.47;;;2.70;99.90;;;;;;4984806;28;20255;-69
2022/01/06 03:54:06;;;;;;;7.87;2.20;;;2.70;99.90;;;;;;5002484;28;20484;-73
2022/01/06 03:56:32;;;;;;;6.37;2.50;;;2.60;99.90;;;;;;4991092;28;20189;-71
2022/01/06 03:58:59;;;;;;;5.93;2.27;;;2.70;99.90;;;;;;4987774;28;20622;-72
2022/01/06 04:01:26;;;;;;;10.00;2.70;;;3.00;99.90;;;;;;4987083;28;20212;-71
2022/01/06 04:03:52;;;;;;;9.90;2.80;;;3.00;99.90;;;;;;4987373;28;20606;-71
2022/01/06 04:06:19;;;;;;;13.33;3.23;;;3.10;99.90;;;;;;4984305;28;20276;-71
2022/01/06 04:08:46;;;;;;;10.07;2.63;;;3.40;99.90;;;;;;4985171;28;20211;-71
2022/01/06 04:11:13;;;;;;;9.43;3.03;;;3.60;99.90;;;;;;4986834;28;20201;-73
2022/01/06 04:13:39;;;;;;;10.63;2.50;;;3.70;99.90;;;;;;4989758;28;20665;-73
2022/01/06 04:16:13;;;;;;;10.63;2.97;;;3.70;99.90;;;;;;4983860;28;20225;-71
2022/01/06 04:18:39;;;;;;;6.23;2.30;;;3.70;99.90;;;;;;4984757;28;20208;-72
2022/01/06 04:21:07;;;;;;;15.63;2.90;;;3.60;99.90;;;;;;4974618;28;20222;-71
2022/01/06 04:23:34;;;;;;;8.77;2.40;;;3.60;99.90;;;;;;4987422;28;20691;-74
2022/01/06 04:26:00;;;;;;;6.20;2.40;;;3.70;99.90;;;;;;5002207;28;20208;-71
2022/01/06 04:28:27;;;;;;;12.07;2.57;;;3.60;99.90;;;;;;4988331;28;21018;-72
2022/01/06 04:30:54;;;;;;;11.53;2.50;;;3.60;99.90;;;;;;4991191;28;20223;-74
2022/01/06 04:33:21;;;;;;;9.33;2.17;;;3.70;99.90;;;;;;4989375;28;20205;-71
2022/01/06 04:35:47;;;;;;;12.33;2.50;;;3.80;99.90;;;;;;4989839;28;20619;-71
2022/01/06 04:38:14;;;;;;;9.37;2.97;;;3.80;99.90;;;;;;4990708;28;20230;-74
2022/01/06 04:40:41;;;;;;;13.47;2.83;;;3.80;99.90;;;;;;4996887;28;20225;-71
2022/01/06 04:43:07;;;;;;;6.17;2.40;;;3.90;99.90;;;;;;4982099;28;20702;-72
2022/01/06 04:45:34;;;;;;;6.63;2.70;;;3.80;99.90;;;;;;4989344;28;20212;-71
2022/01/06 04:48:01;;;;;;;8.97;2.00;;;3.90;99.90;;;;;;4989549;28;20255;-72
2022/01/06 04:50:28;;;;;;;10.03;2.20;;;3.90;99.90;;;;;;4990312;28;20251;-72
2022/01/06 04:52:54;;;;;;;9.67;3.00;;;4.00;99.90;;;;;;4988046;28;20208;-71
2022/01/06 04:55:21;;;;;;;12.10;2.20;;;4.00;99.90;;;;;;4982783;28;20214;-71
2022/01/06 04:57:47;;;;;;;6.97;2.03;;;4.00;99.90;;;;;;4988892;28;20200;-72
2022/01/06 05:00:15;;;;;;;8.23;2.30;;;3.90;99.90;;;;;;4988208;28;20602;-72
2022/01/06 05:02:41;;;;;;;9.17;2.30;;;3.80;99.90;;;;;;4987576;28;20197;-71
2022/01/06 05:05:08;;;;;;;8.53;2.17;;;3.70;99.90;;;;;;4986659;28;20218;-73
2022/01/06 05:07:35;;;;;;;7.50;2.23;;;3.60;99.90;;;;;;4985935;28;20268;-72
2022/01/06 05:10:02;;;;;;;7.97;2.10;;;3.40;99.90;;;;;;4984765;28;20204;-71
2022/01/06 05:12:30;;;;;;;8.90;2.33;;;3.30;99.90;;;;;;4983102;28;20207;-72
2022/01/06 05:14:57;;;;;;;12.17;2.40;;;3.40;99.90;;;;;;4981810;28;20700;-71
2022/01/06 05:17:24;;;;;;;12.73;2.60;;;3.40;99.90;;;;;;4979847;28;20202;-71
2022/01/06 05:19:50;;;;;;;9.50;2.73;;;3.30;99.90;;;;;;4980276;28;20196;-72
2022/01/06 05:22:17;;;;;;;12.27;2.50;;;3.20;99.90;;;;;;4986711;28;20703;-71
2022/01/06 05:24:44;;;;;;;10.30;2.37;;;3.20;99.90;;;;;;4983168;28;20263;-72
2022/01/06 05:27:10;;;;;;;10.00;2.60;;;3.20;99.90;;;;;;4985402;28;20491;-71
2022/01/06 05:29:38;;;;;;;13.40;3.17;;;3.20;99.90;;;;;;4982629;28;20824;-72
2022/01/06 05:32:05;;;;;;;11.80;2.70;;;3.30;99.90;;;;;;4982468;28;20364;-72
2022/01/06 05:34:31;;;;;;;7.20;2.80;;;3.30;99.90;;;;;;4984116;28;20286;-72
2022/01/06 05:36:59;;;;;;;11.30;2.90;;;3.20;99.90;;;;;;4986872;28;20188;-72
2022/01/06 05:39:25;;;;;;;8.83;2.70;;;3.20;99.90;;;;;;4985526;28;20240;-72
2022/01/06 05:41:52;;;;;;;9.27;2.87;;;3.10;99.90;;;;;;4989745;28;20224;-72
2022/01/06 05:44:19;;;;;;;7.80;2.63;;;3.00;99.90;;;;;;4988662;28;20704;-72
2022/01/06 05:46:47;;;;;;;11.00;2.30;;;3.00;99.90;;;;;;4986242;28;20201;-72
2022/01/06 05:49:15;;;;;;;9.27;2.53;;;3.10;99.90;;;;;;4981364;28;20189;-75
2022/01/06 05:51:42;;;;;;;8.20;2.50;;;3.00;99.90;;;;;;4987318;28;20201;-72
2022/01/06 05:54:09;;;;;;;7.77;2.40;;;3.00;99.90;;;;;;4985295;28;20220;-71
2022/01/06 05:56:36;;;;;;;6.77;2.07;;;2.80;99.90;;;;;;4982612;28;20198;-72
2022/01/06 05:59:02;;;;;;;14.30;2.57;;;2.70;99.90;;;;;;4980978;28;20199;-71
2022/01/06 06:01:29;;;;;;;9.13;2.20;;;2.70;99.90;;;;;;4981178;28;20224;-71
2022/01/06 06:03:56;;;;;;;11.53;2.57;;;2.60;99.90;;;;;;4987902;28;20723;-69
2022/01/06 06:06:23;;;;;;;9.03;2.70;;;2.60;99.90;;;;;;4987291;28;20197;-71
2022/01/06 06:08:50;;;;;;;11.07;2.90;;;2.60;99.90;;;;;;4987107;28;20631;-72
2022/01/06 06:11:16;;;;;;;9.60;2.90;;;2.60;99.90;;;;;;4984730;28;20705;-73
2022/01/06 06:13:43;;;;;;;11.70;2.70;;;2.70;99.90;;;;;;4978786;28;20255;-72
2022/01/06 06:16:09;;;;;;;11.17;2.80;;;2.70;99.90;;;;;;4980080;28;20225;-71
2022/01/06 06:18:36;;;;;;;10.97;2.90;;;2.80;99.90;;;;;;4979512;28;20203;-72
2022/01/06 06:21:05;;;;;;;9.53;3.53;;;3.00;99.90;;;;;;4985245;28;20212;-73
2022/01/06 06:23:31;;;;;;;12.17;3.13;;;3.10;99.90;;;;;;4980988;28;20216;-71
2022/01/06 06:25:58;;;;;;;12.17;2.80;;;3.10;99.90;;;;;;4985008;28;20220;-72
2022/01/06 06:28:25;;;;;;;10.97;2.80;;;3.10;99.90;;;;;;4986368;28;20209;-73
2022/01/06 06:30:51;;;;;;;7.77;2.73;;;3.10;99.90;;;;;;4987268;28;20683;-73
2022/01/06 06:33:18;;;;;;;9.60;2.73;;;3.20;99.90;;;;;;4990036;28;20192;-72
2022/01/06 06:35:44;;;;;;;10.40;3.20;;;3.40;99.90;;;;;;4985369;28;20384;-72
2022/01/06 06:38:11;;;;;;;9.67;3.10;;;3.60;99.90;;;;;;4993778;28;20195;-72
2022/01/06 06:40:38;;;;;;;9.53;2.70;;;3.60;99.90;;;;;;4986964;28;20233;-71
2022/01/06 06:43:04;;;;;;;8.77;2.70;;;3.60;99.90;;;;;;4985193;28;20193;-74
2022/01/06 06:45:31;;;;;;;13.03;2.73;;;3.60;99.90;;;;;;4982062;28;20220;-73
2022/01/06 06:47:58;;;;;;;13.67;3.23;;;3.60;99.90;;;;;;4984242;28;20259;-71
2022/01/06 06:50:24;;;;;;;6.70;2.80;;;3.60;99.90;;;;;;4976290;28;20202;-71
2022/01/06 06:52:51;;;;;;;9.47;2.67;;;3.60;99.90;;;;;;4987815;28;20204;-73
2022/01/06 06:55:17;;;;;;;10.50;2.73;;;3.60;99.90;;;;;;4982177;28;20217;-72
2022/01/06 06:57:44;;;;;;;7.77;2.60;;;3.50;99.90;;;;;;4985265;28;20205;-70
2022/01/06 07:00:11;;;;;;;9.93;2.77;;;3.50;99.90;;;;;;4982678;28;20201;-70
2022/01/06 07:02:38;;;;;;;13.40;3.27;;;3.60;99.90;;;;;;4985805;28;20194;-72
2022/01/06 07:05:06;;;;;;;9.77;3.30;;;3.80;99.90;;;;;;4985864;28;20259;-70
2022/01/06 07:07:33;;;;;;;8.90;3.37;;;4.00;99.90;;;;;;4972257;28;20569;-72
2022/01/06 07:10:00;;;;;;;11.33;3.30;;;4.20;99.90;;;;;;4981053;28;20769;-71
2022/01/06 07:12:27;;;;;;;9.30;3.30;;;4.10;99.90;;;;;;4984315;28;20232;-69
2022/01/06 07:14:53;;;;;;;11.70;2.90;;;4.20;99.90;;;;;;4989008;28;20215;-71
2022/01/06 07:17:20;;;;;;;11.10;2.80;;;4.00;99.90;;;;;;4981041;28;20191;-71
2022/01/06 07:19:46;;;;;;;8.67;2.60;;;3.90;99.90;;;;;;4990175;28;20261;-71
2022/01/06 07:22:13;;;;;;;10.67;2.80;;;3.60;99.90;;;;;;4985612;28;20220;-71
2022/01/06 07:24:40;;;;;;;11.20;3.07;;;3.50;99.90;;;;;;4991440;28;20216;-71
2022/01/06 07:27:07;;;;;;;11.50;2.73;;;3.40;99.90;;;;;;4986368;28;20208;-69
2022/01/06 07:29:34;;;;;;;7.70;2.70;;;3.60;99.90;;;;;;4987006;28;20198;-72
2022/01/06 07:32:01;;;;;;;8.27;2.90;;;3.50;99.90;;;;;;4987428;28;20206;-72
2022/01/06 07:34:28;;;;;;;8.30;3.07;;;3.40;99.90;;;;;;4991859;28;20223;-71
2022/01/06 07:36:55;;;;;;;7.67;3.07;;;3.30;99.90;;;;;;4992738;28;20217;-71
2022/01/06 07:39:21;;;;;;;13.80;3.50;;;3.30;99.90;;;;;;4989376;28;20212;-71
2022/01/06 07:41:48;;;;;;;10.60;3.90;;;3.30;99.90;;;;;;4986066;28;20700;-71
2022/01/06 07:44:15;;;;;;;10.97;3.40;;;3.20;99.90;;;;;;4988358;28;20304;-72
2022/01/06 07:46:43;;;;;;;13.27;3.63;;;3.20;99.90;;;;;;4990387;28;20204;-70
2022/01/06 07:49:09;;;;;;;5.80;2.73;;;3.30;99.90;;;;;;4986566;28;20225;-71
2022/01/06 07:51:36;;;;;;;8.37;2.67;;;3.30;99.90;;;;;;4988913;28;20617;-70
2022/01/06 07:54:03;;;;;;;8.57;2.60;;;3.30;99.90;;;;;;4987376;28;20276;-72
2022/01/06 07:56:30;;;;;;;10.67;2.87;;;3.40;99.90;;;;;;4991228;28;20634;-70
2022/01/06 07:58:57;;;;;;;9.63;3.40;;;3.60;99.90;;;;;;4992017;28;20201;-70
2022/01/06 08:01:24;;;;;;;10.87;3.53;;;3.80;99.90;;;;;;4989486;28;20288;-71
2022/01/06 08:03:52;;;;;;;10.30;3.40;;;3.80;99.90;;;;;;4988552;28;20198;-71
2022/01/06 08:06:19;;;;;;;11.13;3.80;;;3.90;99.90;;;;;;4987259;28;20654;-70
2022/01/06 08:08:46;;;;;;;13.30;3.07;;;3.90;99.90;;;;;;4989332;28;20207;-71
2022/01/06 08:11:14;;;;;;;10.00;2.90;;;3.90;99.90;;;;;;4989917;28;20210;-72
2022/01/06 08:13:41;;;;;;;11.13;2.40;;;3.90;99.90;;;;;;4984861;28;20199;-72
2022/01/06 08:16:07;;;;;;;14.80;3.10;;;4.00;99.90;;;;;;4989139;28;20245;-68
2022/01/06 08:18:34;;;;;;;11.80;3.40;;;4.30;99.90;;;;;;4990411;28;20236;-71
2022/01/06 08:21:01;;;;;;;13.40;3.53;;;4.40;99.90;;;;;;4988724;28;20212;-72
2022/01/06 08:23:28;;;;;;;11.13;3.77;;;4.50;99.90;;;;;;4977146;28;20212;-70
2022/01/06 08:25:55;;;;;;;10.57;3.40;;;4.60;99.90;;;;;;4988725;28;20227;-69
2022/01/06 08:28:22;;;;;;;9.53;3.40;;;4.70;99.90;;;;;;4987999;28;20221;-70
2022/01/06 08:30:49;;;;;;;10.43;3.23;;;4.90;99.90;;;;;;4985255;28;20201;-70
2022/01/06 08:33:15;;;;;;;11.83;3.00;;;5.00;99.90;;;;;;4988277;28;20197;-73
2022/01/06 08:35:43;;;;;;;21.17;3.47;;;5.10;99.90;;;;;;4991802;28;20295;-72
2022/01/06 08:38:14;;;;;;;9.07;2.87;;;5.30;99.90;;;;;;4988957;28;20288;-72
2022/01/06 08:40:41;;;;;;;11.63;3.00;;;5.30;99.90;;;;;;4984133;28;20216;-71
2022/01/06 08:43:07;;;;;;;9.17;2.87;;;5.40;99.90;;;;;;4989129;28;20305;-68
2022/01/06 08:45:34;;;;;;;9.10;2.80;;;5.50;99.90;;;;;;4985501;28;20224;-72
2022/01/06 08:48:01;;;;;;;9.10;3.00;;;5.40;99.90;;;;;;4988305;28;20205;-70
2022/01/06 08:50:28;;;;;;;8.43;3.03;;;5.30;99.90;;;;;;4987147;28;20207;-71
2022/01/06 08:52:56;;;;;;;9.07;3.10;;;5.20;99.90;;;;;;4985718;28;20767;-71
2022/01/06 08:55:25;;;;;;;12.07;3.23;;;5.20;99.90;;;;;;4988254;28;20239;-70
2022/01/06 08:57:53;;;;;;;9.13;2.77;;;5.30;99.90;;;;;;4987203;28;20197;-70
2022/01/06 09:00:20;;;;;;;7.13;3.13;;;5.30;99.90;;;;;;4982117;28;20623;-71
2022/01/06 09:02:46;;;;;;;6.43;2.93;;;5.30;99.90;;;;;;4985211;28;20250;-70
2022/01/06 09:05:14;;;;;;;9.10;3.47;;;5.30;99.90;;;;;;4984498;28;20220;-69
2022/01/06 09:07:41;;;;;;;10.50;2.67;;;5.40;99.90;;;;;;4983287;28;20204;-69
2022/01/06 09:10:08;;;;;;;9.23;2.97;;;5.40;99.90;;;;;;4982289;28;20201;-70
2022/01/06 09:12:36;;;;;;;14.03;3.00;;;5.40;99.90;;;;;;4985749;28;20197;-69
2022/01/06 09:15:05;;;;;;;9.63;3.67;;;5.40;99.90;;;;;;4989381;28;20645;-68
2022/01/06 09:17:35;;;;;;;8.57;3.40;;;5.50;99.90;;;;;;4992340;28;20197;-71
2022/01/06 09:20:07;;;;;;;10.80;3.60;;;5.70;99.90;;;;;;4989859;28;20201;-74
2022/01/06 09:22:38;;;;;;;10.43;2.93;;;5.70;99.90;;;;;;4981520;28;20220;-72
2022/01/06 09:25:05;;;;;;;10.57;3.10;;;5.60;99.90;;;;;;4982097;28;20213;-72
2022/01/06 09:27:32;;;;;;;8.67;3.37;;;5.60;99.90;;;;;;4986452;28;20586;-73
2022/01/06 09:29:59;;;;;;;9.00;2.63;;;5.70;99.90;;;;;;4985117;28;20193;-73
2022/01/06 09:32:26;;;;;;;10.87;2.97;;;5.80;99.90;;;;;;4989757;28;20332;-74
2022/01/06 09:34:53;;;;;;;11.10;3.10;;;6.00;99.90;;;;;;4987495;28;20239;-72
2022/01/06 09:37:20;;;;;;;11.47;2.80;;;6.10;99.90;;;;;;4988931;28;20633;-74
2022/01/06 09:39:47;;;;;;;7.70;2.87;;;6.10;99.90;;;;;;4988543;28;20212;-72
2022/01/06 09:42:15;;;;;;;9.17;2.80;;;6.00;99.90;;;;;;4987744;28;20224;-73
2022/01/06 09:44:42;;;;;;;5.93;2.37;;;6.10;99.90;;;;;;4988360;28;20623;-75
2022/01/06 09:47:10;;;;;;;7.20;2.23;;;6.00;99.90;;;;;;4981194;28;20205;-72
2022/01/06 09:49:57;;;;;;;4.33;2.27;;;6.00;99.90;;;;;;4979887;28;20613;-73
2022/01/06 09:52:24;;;;;;;9.33;2.73;;;6.20;99.90;;;;;;4988495;28;20229;-72
2022/01/06 09:54:51;;;;;;;8.40;2.90;;;6.10;99.90;;;;;;4986869;28;20225;-72
2022/01/06 09:57:18;;;;;;;10.40;2.90;;;6.10;99.90;;;;;;4987991;28;20274;-71
2022/01/06 09:59:45;;;;;;;9.70;2.87;;;6.10;99.90;;;;;;4977244;28;20204;-72
2022/01/06 10:02:18;;;;;;;7.60;2.70;;;6.10;99.90;;;;;;4985985;28;20232;-73
2022/01/06 10:04:56;;;;;;;8.63;3.40;;;6.10;99.90;;;;;;4985384;28;20231;-72
2022/01/06 10:07:23;;;;;;;13.47;3.20;;;6.20;99.90;;;;;;4980397;28;20732;-71
2022/01/06 10:09:50;;;;;;;7.80;2.50;;;6.30;99.90;;;;;;4978695;28;20205;-72
2022/01/06 10:12:17;;;;;;;9.40;3.20;;;6.40;99.90;;;;;;4980434;28;20201;-68
2022/01/06 10:14:46;;;;;;;10.03;3.00;;;6.20;99.90;;;;;;4985759;28;20221;-71
2022/01/06 10:17:28;;;;;;;10.47;3.13;;;6.20;99.90;;;;;;4980479;28;20201;-73
2022/01/06 10:19:55;;;;;;;9.03;2.90;;;6.40;99.90;;;;;;4983933;28;20217;-70
2022/01/06 10:22:22;;;;;;;12.30;3.60;;;6.50;99.90;;;;;;4989932;28;20217;-71
2022/01/06 10:24:50;;;;;;;7.47;2.50;;;6.40;99.90;;;;;;4986721;28;20212;-72
2022/01/06 10:27:20;;;;;;;8.50;3.10;;;6.20;99.90;;;;;;4985351;28;20684;-68
2022/01/06 10:29:49;;;;;;;10.93;2.90;;;6.20;99.90;;;;;;4976315;28;20276;-72
2022/01/06 10:32:27;;;;;;;9.77;3.07;;;6.20;99.90;;;;;;4980637;28;20257;-72
2022/01/06 10:34:56;;;;;;;10.87;3.10;;;6.30;99.90;;;;;;4984733;28;20764;-72
2022/01/06 10:37:27;;;;;;;17.90;3.17;;;6.30;99.90;;;;;;4986972;28;20199;-74
2022/01/06 10:40:27;;;;;;;7.33;2.77;;;6.40;99.90;;;;;;4984277;28;20203;-75
2022/01/06 10:43:05;;;;;;;9.10;2.90;;;6.40;99.90;;;;;;4984991;28;20216;-71
2022/01/06 10:45:34;;;;;;;10.13;3.07;;;6.40;99.90;;;;;;4985923;28;20217;-73
2022/01/06 10:48:03;;;;;;;12.27;2.90;;;6.40;99.90;;;;;;4992887;28;20207;-72
2022/01/06 10:50:39;;;;;;;9.27;2.97;;;6.40;99.90;;;;;;4991580;28;20200;-74
2022/01/06 10:53:11;;;;;;;8.87;2.23;;;6.30;99.90;;;;;;4988688;28;20208;-72
2022/01/06 10:55:43;;;;;;;8.03;2.20;;;6.20;99.90;;;;;;4986866;28;20226;-71
2022/01/06 10:58:19;;;;;;;5.50;2.23;;;6.20;99.90;;;;;;4986109;28;20201;-70
2022/01/06 11:00:48;;;;;;;11.87;3.20;;;6.20;99.90;;;;;;4995855;28;20259;-73
2022/01/06 11:03:15;;;;;;;6.43;2.30;;;6.30;99.90;;;;;;4998497;28;20216;-73
2022/01/06 11:05:50;;;;;;;11.63;2.67;;;6.40;99.90;;;;;;4994684;28;20248;-71
2022/01/06 11:08:21;;;;;;;10.50;2.60;;;6.40;99.90;;;;;;4994540;28;20827;-71
2022/01/06 11:11:13;;;;;;;6.47;2.50;;;6.40;99.90;;;;;;4991470;28;20201;-71
2022/01/06 11:13:49;;;;;;;9.90;2.37;;;6.50;99.90;;;;;;4987430;28;20204;-69
2022/01/06 11:16:18;;;;;;;11.67;2.70;;;6.70;99.90;;;;;;4990484;28;20208;-73
2022/01/06 11:19:03;;;;;;;8.03;2.80;;;6.80;99.90;;;;;;4993118;28;20197;-69
2022/01/06 11:21:39;;;;;;;8.97;2.63;;;7.00;99.90;;;;;;4991723;28;20255;-73
2022/01/06 11:24:15;;;;;;;11.50;2.60;;;7.10;99.90;;;;;;4985849;28;20567;-71
2022/01/06 11:26:55;;;;;;;9.70;2.73;;;7.00;99.90;;;;;;4983134;28;20192;-70
2022/01/06 11:29:26;;;;;;;7.20;2.40;;;6.90;99.90;;;;;;4979005;28;20198;-70
2022/01/06 11:31:53;;;;;;;9.70;2.63;;;6.90;99.90;;;;;;4992457;28;20197;-71
2022/01/06 11:34:21;;;;;;;11.57;2.53;;;6.70;99.90;;;;;;4993189;28;20328;-72
2022/01/06 11:36:51;;;;;;;10.23;2.57;;;6.70;99.90;;;;;;4992673;28;20213;-68
2022/01/06 11:39:21;;;;;;;12.07;3.30;;;6.70;99.90;;;;;;4988244;28;20201;-70
2022/01/06 11:41:48;;;;;;;5.27;2.23;;;6.90;99.90;;;;;;4991478;28;20236;-70
2022/01/06 11:44:17;;;;;;;7.33;2.40;;;6.90;99.90;;;;;;4983986;28;20223;-72
2022/01/06 11:46:45;;;;;;;9.87;2.47;;;6.90;99.90;;;;;;4985995;28;20192;-70
2022/01/06 11:49:12;;;;;;;10.30;3.00;;;7.00;99.90;;;;;;4995566;28;20193;-73
2022/01/06 11:51:39;;;;;;;6.60;2.30;;;7.10;99.90;;;;;;4997236;28;20260;-70
2022/01/06 11:54:14;;;;;;;11.80;2.57;;;7.30;99.90;;;;;;4995199;28;20201;-71
2022/01/06 11:56:45;;;;;;;6.80;2.53;;;7.40;99.90;;;;;;4992559;28;20205;-74
2022/01/06 11:59:11;;;;;;;8.97;2.63;;;7.30;99.90;;;;;;4995321;28;20205;-73
2022/01/06 12:01:49;;;;;;;6.07;2.33;;;7.10;99.90;;;;;;4988318;28;20569;-69
2022/01/06 12:04:18;;;;;;;5.87;2.60;;;6.90;99.90;;;;;;4989982;28;20249;-71
2022/01/06 12:06:46;;;;;;;10.10;2.47;;;6.90;99.90;;;;;;4983559;28;20216;-73
2022/01/06 12:09:23;;;;;;;8.43;2.20;;;6.80;99.90;;;;;;4979239;28;20205;-70
2022/01/06 12:12:05;;;;;;;7.33;2.33;;;6.70;99.90;;;;;;4989488;28;20201;-71
2022/01/06 12:14:33;;;;;;;9.60;2.40;;;6.60;99.90;;;;;;4987375;28;20229;-71
2022/01/06 12:17:10;;;;;;;9.27;2.07;;;6.50;99.90;;;;;;4988511;28;20284;-69
2022/01/06 12:19:37;;;;;;;7.70;2.37;;;6.40;99.90;;;;;;4990252;28;20208;-69
2022/01/06 12:22:10;;;;;;;14.83;2.23;;;6.40;99.90;;;;;;4980792;28;20236;-71
2022/01/06 12:24:36;;;;;;;10.10;2.43;;;6.50;99.90;;;;;;4987967;28;20275;-71
2022/01/06 12:27:04;;;;;;;9.40;2.67;;;6.50;99.90;;;;;;4984973;28;20794;-72
2022/01/06 12:29:39;;;;;;;6.83;2.33;;;6.60;99.90;;;;;;4985599;28;20221;-70
2022/01/06 12:32:11;;;;;;;11.23;2.37;;;6.70;99.90;;;;;;4984499;28;20580;-70
2022/01/06 12:34:39;;;;;;;7.63;2.30;;;6.80;99.90;;;;;;4990491;28;20216;-71
2022/01/06 12:37:07;;;;;;;6.67;2.40;;;6.90;99.90;;;;;;4987111;28;20256;-75
2022/01/06 12:39:34;;;;;;;12.23;1.83;;;7.10;99.90;;;;;;4988490;28;20447;-72
2022/01/06 12:42:04;;;;;;;8.57;2.27;;;7.40;99.90;;;;;;4987243;28;20214;-69
2022/01/06 12:44:31;;;;;;;12.90;2.37;;;7.60;99.90;;;;;;4983471;28;20227;-73
2022/01/06 12:46:59;;;;;;;10.77;2.37;;;7.90;99.90;;;;;;4981399;28;20205;-72
2022/01/06 12:49:28;;;;;;;8.07;2.10;;;8.10;99.90;;;;;;4989662;28;20201;-72
2022/01/06 12:51:57;;;;;;;6.47;2.03;;;8.20;99.90;;;;;;4987463;28;20216;-72
2022/01/06 12:54:24;;;;;;;14.87;2.43;;;8.20;99.90;;;;;;4976216;28;20224;-73
2022/01/06 12:56:56;;;;;;;7.23;1.80;;;8.40;99.90;;;;;;4985917;28;20199;-71
2022/01/06 12:59:33;;;;;;;11.70;2.50;;;8.50;99.90;;;;;;4983791;28;20210;-74
2022/01/06 13:02:02;;;;;;;5.80;2.03;;;8.50;99.90;;;;;;4986244;28;20223;-70
2022/01/06 13:04:33;;;;;;;7.10;1.80;;;8.60;99.90;;;;;;4986182;28;20219;-71